createdAt,value
2022-08-29T00:05:29.666Z,15.9
2022-08-29T00:11:09.714Z,15.9
2022-08-29T00:16:58.357Z,15.8
2022-08-29T00:22:20.659Z,15.8
2022-08-29T00:28:06.274Z,15.8
2022-08-29T00:33:27.673Z,15.8
2022-08-29T00:39:09.624Z,15.7
2022-08-29T00:44:34.758Z,15.6
2022-08-29T00:49:56.854Z,15.7
2022-08-29T00:55:02.015Z,15.6
2022-08-29T01:00:21.555Z,15.5
2022-08-29T01:06:09.039Z,15.4
2022-08-29T01:12:00.695Z,15.3
2022-08-29T01:17:37.293Z,15.3
2022-08-29T01:22:58.302Z,15.2
2022-08-29T01:28:19.872Z,15.1
2022-08-29T01:34:32.161Z,15
2022-08-29T01:40:09.447Z,14.9
2022-08-29T01:45:49.601Z,14.8
2022-08-29T01:51:29.583Z,14.8
2022-08-29T01:57:09.696Z,14.7
2022-08-29T02:02:50.643Z,14.6
2022-08-29T02:08:11.582Z,14.6
2022-08-29T02:13:48.570Z,14.6
2022-08-29T02:19:09.642Z,14.5
2022-08-29T02:25:14.662Z,14.4
2022-08-29T02:30:52.118Z,14.4
2022-08-29T02:36:10.257Z,14.4
2022-08-29T02:41:48.180Z,14.4
2022-08-29T02:47:09.913Z,14.4
2022-08-29T02:53:05.075Z,14.3
2022-08-29T02:58:14.312Z,14.3
2022-08-29T03:03:51.023Z,14.3
2022-08-29T03:09:18.944Z,14.2
2022-08-29T03:14:41.533Z,14.2
2022-08-29T03:20:19.457Z,14.1
2022-08-29T03:25:55.495Z,14.1
2022-08-29T03:31:42.212Z,14
2022-08-29T03:36:53.111Z,14
2022-08-29T03:42:14.887Z,14
2022-08-29T03:47:53.951Z,14.1
2022-08-29T03:53:32.479Z,14.1
2022-08-29T03:59:10.115Z,14.2
2022-08-29T04:04:47.393Z,14.2
2022-08-29T04:10:28.461Z,14.3
2022-08-29T04:16:06.432Z,14.4
2022-08-29T04:21:52.800Z,14.5
2022-08-29T04:27:59.734Z,14.8
2022-08-29T04:33:46.743Z,14.9
2022-08-29T04:39:23.908Z,15.2
2022-08-29T04:45:01.070Z,15.6
2022-08-29T04:50:46.103Z,16.2
2022-08-29T04:56:24.009Z,17.4
2022-08-29T05:01:58.820Z,18.8
2022-08-29T05:07:23.076Z,19.8
2022-08-29T05:13:09.267Z,21.3
2022-08-29T05:18:47.464Z,22.8
2022-08-29T05:24:34.338Z,23.8
2022-08-29T05:30:11.417Z,24.8
2022-08-29T05:36:20.117Z,26.8
2022-08-29T05:41:43.890Z,29.8
2022-08-29T05:47:32.423Z,33.1
2022-08-29T05:53:10.561Z,35.1
2022-08-29T05:58:48.857Z,35.9
2022-08-29T06:04:31.786Z,36.9
2022-08-29T06:10:08.909Z,38.3
2022-08-29T06:15:49.769Z,39.2
2022-08-29T06:21:34.924Z,41.3
2022-08-29T06:27:39.537Z,45.7
2022-08-29T06:33:29.609Z,50.4
2022-08-29T06:39:07.400Z,54.1
2022-08-29T06:44:47.289Z,57.3
2022-08-29T06:50:30.246Z,63.6
2022-08-29T06:56:45.959Z,47.5
2022-08-29T07:02:40.394Z,51.3
2022-08-29T07:08:26.362Z,58.9
2022-08-29T07:14:24.715Z,49.9
2022-08-29T07:20:18.163Z,49.4
2022-08-29T07:25:59.861Z,51.1
2022-08-29T07:31:47.686Z,53
2022-08-29T07:37:50.790Z,53.4
2022-08-29T07:43:36.298Z,55.2
2022-08-29T07:49:22.066Z,60.3
2022-08-29T07:55:10.151Z,49.4
2022-08-29T08:00:51.876Z,58.4
2022-08-29T08:06:23.832Z,55.9
2022-08-29T08:12:24.537Z,54.3
2022-08-29T08:18:02.523Z,54.8
2022-08-29T08:23:51.081Z,57.7
2022-08-29T08:29:29.987Z,56
2022-08-29T08:34:56.686Z,54.4
2022-08-29T08:40:49.821Z,54.9
2022-08-29T08:46:36.617Z,55.7
2022-08-29T08:52:03.030Z,54.9
2022-08-29T08:57:24.102Z,54.3
2022-08-29T09:03:02.284Z,51.1
2022-08-29T09:08:42.044Z,50.1
2022-08-29T09:14:07.865Z,48.9
2022-08-29T09:20:07.944Z,47.9
2022-08-29T09:26:20.213Z,46.7
2022-08-29T09:31:57.995Z,45.7
2022-08-29T09:38:05.723Z,45.3
2022-08-29T09:43:50.281Z,45.2
2022-08-29T09:49:28.460Z,45.2
2022-08-29T09:55:15.982Z,45.9
2022-08-29T10:01:01.430Z,46.9
2022-08-29T10:06:52.127Z,47.8
2022-08-29T10:12:17.344Z,48.4
2022-08-29T10:18:30.234Z,48.6
2022-08-29T10:24:10.575Z,49.6
2022-08-29T10:29:48.519Z,66.2
2022-08-29T10:35:17.005Z,64.1
2022-08-29T10:40:52.541Z,58.3
2022-08-29T10:46:34.364Z,60.6
2022-08-29T10:52:30.567Z,61.8
2022-08-29T10:58:13.267Z,62.1
2022-08-29T11:03:51.804Z,59.3
2022-08-29T11:09:31.546Z,52.6
2022-08-29T11:15:11.254Z,54.3
2022-08-29T11:20:54.018Z,53.7
2022-08-29T11:26:39.618Z,52
2022-08-29T11:32:20.263Z,50.4
2022-08-29T11:37:57.029Z,49.8
2022-08-29T11:44:57.710Z,49.8
2022-08-29T11:50:50.162Z,51.3
2022-08-29T11:56:28.358Z,55.7
2022-08-29T12:02:12.826Z,62.3
2022-08-29T12:08:33.528Z,63.9
2022-08-29T12:20:09.200Z,49.9
2022-08-29T12:26:23.030Z,48.6
2022-08-29T12:32:49.945Z,47.7
2022-08-29T12:38:41.959Z,46.9
2022-08-29T12:44:24.361Z,46.2
2022-08-29T12:49:47.626Z,45.4
2022-08-29T12:55:12.951Z,44.5
2022-08-29T13:00:40.970Z,43.8
2022-08-29T13:06:23.893Z,42.8
2022-08-29T13:12:09.051Z,41.9
2022-08-29T13:17:51.722Z,41.1
2022-08-29T13:24:00.221Z,40.3
2022-08-29T13:29:32.283Z,39.1
2022-08-29T13:35:20.937Z,38.1
2022-08-29T13:41:09.419Z,37.3
2022-08-29T13:46:49.279Z,36.3
2022-08-29T13:52:31.487Z,34.9
2022-08-29T13:58:08.531Z,33.6
2022-08-29T14:05:11.536Z,32.1
2022-08-29T14:10:49.247Z,30.4
2022-08-29T14:16:37.901Z,29
2022-08-29T14:27:52.524Z,27.1
2022-08-29T14:33:51.558Z,26.6
2022-08-29T14:39:48.567Z,25.9
2022-08-29T14:45:32.830Z,25.4
2022-08-29T14:51:10.605Z,25
2022-08-29T14:57:34.501Z,24.6
2022-08-29T15:03:13.008Z,24.1
2022-08-29T15:08:48.988Z,23.7
2022-08-29T15:14:26.358Z,23.4
2022-08-29T15:21:37.643Z,23.2
2022-08-29T15:27:23.703Z,23.1
2022-08-29T15:33:05.808Z,23
2022-08-29T15:38:44.253Z,23.1
2022-08-29T15:44:35.224Z,23.1
2022-08-29T15:50:22.008Z,23.2
2022-08-29T15:56:00.809Z,23.4
2022-08-29T16:02:17.683Z,23.5
2022-08-29T16:07:56.290Z,23.4
2022-08-29T16:14:08.354Z,23.4
